Time;durP1;ratioP1;P1;durP2;ratioP2;P2;SDS_P1;SDS_P2;PMS_P1;PMS_P2;Temp;Humidity;BMP_temperature;BMP_pressure;BME280_temperature;BME280_humidity;BME280_pressure;Samples;Min_cycle;Max_cycle;Signal;HPM_P1;HPM_P2
2023/10/23 00:01:03;;;;;;;;;3.50;3.50;;;;;;;;5054789;28;10756;-81
2023/10/23 00:03:31;;;;;;;;;5.50;5.50;;;;;;;;5067871;28;11037;-81
2023/10/23 00:05:58;;;;;;;;;4.00;4.00;;;;;;;;5066830;28;10911;-81
2023/10/23 00:08:25;;;;;;;;;5.00;5.00;;;;;;;;5067111;28;10968;-80
2023/10/23 00:10:52;;;;;;;;;5.25;5.25;;;;;;;;5067510;28;10840;-81
2023/10/23 00:13:19;;;;;;;;;0.25;0.25;;;;;;;;5067963;28;11163;-81
2023/10/23 00:15:48;;;;;;;;;4.00;4.00;;;;;;;;5068806;28;10889;-81
2023/10/23 00:18:15;;;;;;;;;4.00;4.00;;;;;;;;5070473;28;10996;-81
2023/10/23 00:20:43;;;;;;;;;4.00;4.00;;;;;;;;5071150;28;11032;-81
2023/10/23 00:23:10;;;;;;;;;4.25;4.25;;;;;;;;5065874;28;11016;-81
2023/10/23 00:25:37;;;;;;;;;3.75;3.75;;;;;;;;5062526;28;10837;-81
2023/10/23 00:28:05;;;;;;;;;4.00;3.00;;;;;;;;5059743;28;10811;-81
2023/10/23 00:30:35;;;;;;;;;2.00;2.00;;;;;;;;5070533;28;10713;-80
2023/10/23 00:33:04;;;;;;;;;5.00;3.75;;;;;;;;5059987;28;10925;-81
2023/10/23 00:35:32;;;;;;;;;4.00;4.00;;;;;;;;5067462;28;11547;-81
2023/10/23 00:37:59;;;;;;;;;4.00;4.00;;;;;;;;5070764;28;10903;-81
2023/10/23 00:40:26;;;;;;;;;3.00;3.00;;;;;;;;5068596;28;10801;-80
2023/10/23 00:42:53;;;;;;;;;4.75;4.75;;;;;;;;5059895;28;11646;-81
2023/10/23 00:45:21;;;;;;;;;3.75;3.75;;;;;;;;5070513;28;10878;-81
2023/10/23 00:47:48;;;;;;;;;4.00;3.00;;;;;;;;5070167;28;10977;-80
2023/10/23 00:50:17;;;;;;;;;6.00;4.00;;;;;;;;5071699;28;10955;-81
2023/10/23 00:52:44;;;;;;;;;5.25;5.25;;;;;;;;5075545;28;10938;-80
2023/10/23 00:55:12;;;;;;;;;4.00;2.25;;;;;;;;5075096;28;11121;-81
2023/10/23 00:57:40;;;;;;;;;3.00;3.00;;;;;;;;5072841;28;11003;-81
2023/10/23 01:00:12;;;;;;;;;3.00;3.00;;;;;;;;5073776;28;11050;-81
2023/10/23 01:02:39;;;;;;;;;4.50;4.50;;;;;;;;5061803;28;11113;-81
2023/10/23 01:05:07;;;;;;;;;3.50;3.50;;;;;;;;5070966;28;11149;-81
2023/10/23 01:07:36;;;;;;;;;4.00;4.00;;;;;;;;5064609;28;11445;-81
2023/10/23 01:10:04;;;;;;;;;4.00;4.00;;;;;;;;5071876;28;11083;-81
2023/10/23 01:12:31;;;;;;;;;6.50;6.50;;;;;;;;5070897;28;11187;-81
2023/10/23 01:15:02;;;;;;;;;4.50;4.50;;;;;;;;5070395;28;11089;-81
2023/10/23 01:17:29;;;;;;;;;3.50;3.50;;;;;;;;5056701;28;11843;-81
2023/10/23 01:19:56;;;;;;;;;4.25;4.00;;;;;;;;5061883;28;11002;-81
2023/10/23 01:22:23;;;;;;;;;3.00;3.00;;;;;;;;5070095;28;10912;-81
2023/10/23 01:24:53;;;;;;;;;2.25;2.25;;;;;;;;5070094;28;10914;-80
2023/10/23 01:27:21;;;;;;;;;3.00;3.00;;;;;;;;5062051;28;10934;-80
2023/10/23 01:29:48;;;;;;;;;3.00;3.00;;;;;;;;5069093;28;10994;-81
2023/10/23 01:32:16;;;;;;;;;3.00;3.00;;;;;;;;5063346;28;10844;-80
2023/10/23 01:34:43;;;;;;;;;2.50;2.50;;;;;;;;5062451;28;11014;-80
2023/10/23 01:37:10;;;;;;;;;5.00;3.00;;;;;;;;5068464;28;10810;-81
2023/10/23 01:39:37;;;;;;;;;2.00;2.00;;;;;;;;5069889;28;11693;-80
2023/10/23 01:42:05;;;;;;;;;3.00;2.25;;;;;;;;5070122;28;10833;-80
2023/10/23 01:44:34;;;;;;;;;2.00;2.00;;;;;;;;5067151;28;11047;-80
2023/10/23 01:47:01;;;;;;;;;1.75;1.75;;;;;;;;5056682;28;11019;-81
2023/10/23 01:49:28;;;;;;;;;3.25;2.00;;;;;;;;5068807;28;10862;-80
2023/10/23 01:51:56;;;;;;;;;3.25;3.25;;;;;;;;5069893;28;10902;-80
2023/10/23 01:54:23;;;;;;;;;1.00;1.00;;;;;;;;5068693;28;11020;-80
2023/10/23 01:56:50;;;;;;;;;1.25;1.25;;;;;;;;5069056;28;10907;-80
2023/10/23 01:59:18;;;;;;;;;3.00;1.75;;;;;;;;5067767;28;11034;-80
2023/10/23 02:01:46;;;;;;;;;2.00;2.00;;;;;;;;5068978;28;10884;-80
2023/10/23 02:04:13;;;;;;;;;1.00;1.00;;;;;;;;5068846;28;11173;-81
2023/10/23 02:06:41;;;;;;;;;2.00;2.00;;;;;;;;5059836;28;11040;-80
2023/10/23 02:09:09;;;;;;;;;2.00;2.00;;;;;;;;5066416;28;11102;-80
2023/10/23 02:11:36;;;;;;;;;2.50;2.50;;;;;;;;5069347;28;11191;-81
2023/10/23 02:14:04;;;;;;;;;2.75;1.00;;;;;;;;5066071;28;11257;-81
2023/10/23 02:16:31;;;;;;;;;1.00;1.00;;;;;;;;5049705;28;11111;-81
2023/10/23 02:18:59;;;;;;;;;2.25;2.25;;;;;;;;5053287;28;10982;-81
2023/10/23 02:21:27;;;;;;;;;4.00;2.75;;;;;;;;5069142;28;11059;-81
2023/10/23 02:23:54;;;;;;;;;1.00;1.00;;;;;;;;5051717;28;12140;-81
2023/10/23 02:26:21;;;;;;;;;2.00;2.00;;;;;;;;5049909;28;11161;-81
2023/10/23 02:28:48;;;;;;;;;3.00;1.50;;;;;;;;5050435;28;11116;-80
2023/10/23 02:31:15;;;;;;;;;5.00;2.00;;;;;;;;5049064;28;11102;-81
2023/10/23 02:33:43;;;;;;;;;2.75;2.75;;;;;;;;5066417;28;11127;-80
2023/10/23 02:36:12;;;;;;;;;2.75;2.75;;;;;;;;5069255;28;11109;-80
2023/10/23 02:38:42;;;;;;;;;4.75;3.00;;;;;;;;5068606;28;11146;-81
2023/10/23 02:41:09;;;;;;;;;1.00;1.00;;;;;;;;5069526;28;11435;-81
2023/10/23 02:43:36;;;;;;;;;2.50;2.00;;;;;;;;5068904;28;11055;-81
2023/10/23 02:46:04;;;;;;;;;2.00;2.00;;;;;;;;5071970;28;11145;-81
2023/10/23 02:48:32;;;;;;;;;3.25;2.50;;;;;;;;5072343;28;11167;-81
2023/10/23 02:51:00;;;;;;;;;2.00;2.00;;;;;;;;5072813;28;11228;-80
2023/10/23 02:53:29;;;;;;;;;2.00;2.00;;;;;;;;5061024;28;11041;-81
2023/10/23 02:55:57;;;;;;;;;2.00;2.00;;;;;;;;5073394;28;11170;-80
2023/10/23 02:58:24;;;;;;;;;2.00;2.00;;;;;;;;5073678;28;11144;-81
2023/10/23 03:00:52;;;;;;;;;3.50;2.75;;;;;;;;5070122;28;11055;-80
2023/10/23 03:03:19;;;;;;;;;3.00;3.00;;;;;;;;5068185;28;11223;-81
2023/10/23 03:05:46;;;;;;;;;3.00;3.00;;;;;;;;5067348;28;11150;-80
2023/10/23 03:08:14;;;;;;;;;1.75;1.75;;;;;;;;5066836;28;11749;-81
2023/10/23 03:10:43;;;;;;;;;2.75;2.75;;;;;;;;5066585;28;10973;-80
2023/10/23 03:13:10;;;;;;;;;2.00;2.00;;;;;;;;5068539;28;11063;-81
2023/10/23 03:15:37;;;;;;;;;2.00;2.00;;;;;;;;5066797;28;11823;-81
2023/10/23 03:18:05;;;;;;;;;3.00;3.00;;;;;;;;5067097;28;11153;-81
2023/10/23 03:20:34;;;;;;;;;4.00;2.00;;;;;;;;5065348;28;11176;-81
2023/10/23 03:23:01;;;;;;;;;3.75;3.75;;;;;;;;5068107;28;11450;-81
2023/10/23 03:25:28;;;;;;;;;2.00;2.00;;;;;;;;5068146;28;11128;-81
2023/10/23 03:27:57;;;;;;;;;2.00;2.00;;;;;;;;5068759;28;11202;-81
2023/10/23 03:30:25;;;;;;;;;3.00;3.00;;;;;;;;5065507;28;10960;-81
2023/10/23 03:32:51;;;;;;;;;2.50;2.50;;;;;;;;5068182;28;11157;-81
2023/10/23 03:35:18;;;;;;;;;4.00;2.75;;;;;;;;5068175;28;11048;-81
2023/10/23 03:37:45;;;;;;;;;2.00;2.00;;;;;;;;5067026;28;11217;-81
2023/10/23 03:40:25;;;;;;;;;2.00;2.00;;;;;;;;5065711;28;11349;-80
2023/10/23 03:42:52;;;;;;;;;0.00;0.00;;;;;;;;5067981;28;11067;-80
2023/10/23 03:45:21;;;;;;;;;2.00;0.25;;;;;;;;5067722;28;10970;-81
2023/10/23 03:47:48;;;;;;;;;1.75;1.75;;;;;;;;5066083;28;11019;-81
2023/10/23 03:50:16;;;;;;;;;5.00;5.00;;;;;;;;5056034;28;11121;-81
2023/10/23 03:52:43;;;;;;;;;4.75;4.75;;;;;;;;5069295;28;11320;-80
2023/10/23 03:55:10;;;;;;;;;3.25;3.25;;;;;;;;5071299;28;12229;-81
2023/10/23 03:57:38;;;;;;;;;4.50;2.75;;;;;;;;5071509;28;11580;-81
2023/10/23 04:00:07;;;;;;;;;3.00;2.25;;;;;;;;5071889;28;11184;-81
2023/10/23 04:02:35;;;;;;;;;3.00;3.00;;;;;;;;5074970;28;11152;-83
2023/10/23 04:05:06;;;;;;;;;4.00;4.00;;;;;;;;5071070;28;11181;-84
2023/10/23 04:07:33;;;;;;;;;3.25;3.25;;;;;;;;5067856;28;11488;-82
2023/10/23 04:10:02;;;;;;;;;2.75;2.75;;;;;;;;5078226;28;11212;-86
2023/10/23 04:12:29;;;;;;;;;3.00;3.00;;;;;;;;5072748;28;11063;-80
2023/10/23 04:14:56;;;;;;;;;2.75;2.75;;;;;;;;5069386;28;11136;-83
2023/10/23 04:17:23;;;;;;;;;1.50;1.50;;;;;;;;5068948;28;10977;-82
2023/10/23 04:19:55;;;;;;;;;3.00;3.00;;;;;;;;5069232;28;10979;-85
2023/10/23 04:22:22;;;;;;;;;2.00;2.00;;;;;;;;5067541;28;11170;-82
2023/10/23 04:24:49;;;;;;;;;3.00;3.00;;;;;;;;5069907;28;10984;-82
2023/10/23 04:27:16;;;;;;;;;3.00;3.00;;;;;;;;5066980;28;11110;-81
2023/10/23 04:29:44;;;;;;;;;4.25;4.25;;;;;;;;5068437;28;11118;-81
2023/10/23 04:32:14;;;;;;;;;2.75;2.75;;;;;;;;5064528;28;11027;-81
2023/10/23 04:34:42;;;;;;;;;2.25;2.25;;;;;;;;5066167;28;11044;-81
2023/10/23 04:37:10;;;;;;;;;3.25;3.25;;;;;;;;5073170;28;11159;-81
2023/10/23 04:39:38;;;;;;;;;4.00;4.00;;;;;;;;5073607;28;11007;-81
2023/10/23 04:42:06;;;;;;;;;2.00;2.00;;;;;;;;5074016;28;11084;-80
2023/10/23 04:44:33;;;;;;;;;3.00;3.00;;;;;;;;5072554;28;11034;-81
2023/10/23 04:47:03;;;;;;;;;3.50;3.50;;;;;;;;5063522;28;11942;-81
2023/10/23 04:49:32;;;;;;;;;3.75;3.75;;;;;;;;5071051;28;11138;-82
2023/10/23 04:52:00;;;;;;;;;4.25;3.00;;;;;;;;5069592;28;10969;-81
2023/10/23 04:54:28;;;;;;;;;3.00;3.00;;;;;;;;5065905;28;11194;-81
2023/10/23 04:56:56;;;;;;;;;5.25;3.75;;;;;;;;5067598;28;11057;-81
2023/10/23 04:59:23;;;;;;;;;3.50;1.75;;;;;;;;5068887;28;10994;-81
2023/10/23 05:01:50;;;;;;;;;3.00;2.00;;;;;;;;5058713;28;10936;-82
2023/10/23 05:04:18;;;;;;;;;1.75;1.75;;;;;;;;5068991;28;11535;-81
2023/10/23 05:06:45;;;;;;;;;0.50;0.00;;;;;;;;5069622;28;10839;-81
2023/10/23 05:09:12;;;;;;;;;2.75;2.00;;;;;;;;5067037;28;10556;-80
2023/10/23 05:11:41;;;;;;;;;4.50;3.00;;;;;;;;5070091;28;10811;-79
2023/10/23 05:14:08;;;;;;;;;3.75;2.00;;;;;;;;5068882;28;10774;-74
2023/10/23 05:16:35;;;;;;;;;2.00;2.00;;;;;;;;5069377;28;10748;-73
2023/10/23 05:19:02;;;;;;;;;2.00;2.00;;;;;;;;5068204;28;10740;-76
2023/10/23 05:21:30;;;;;;;;;3.25;2.25;;;;;;;;5070323;28;10770;-74
2023/10/23 05:23:57;;;;;;;;;2.00;2.00;;;;;;;;5066945;28;10608;-74
2023/10/23 05:26:24;;;;;;;;;2.00;2.00;;;;;;;;5068748;28;10723;-75
2023/10/23 05:28:54;;;;;;;;;2.00;2.00;;;;;;;;5066883;28;10526;-74
2023/10/23 05:31:21;;;;;;;;;4.25;2.00;;;;;;;;5068039;28;10526;-74
2023/10/23 05:33:49;;;;;;;;;3.75;2.50;;;;;;;;5068080;28;11244;-75
2023/10/23 05:36:16;;;;;;;;;2.00;2.00;;;;;;;;5068860;28;10679;-74
2023/10/23 05:38:43;;;;;;;;;4.25;3.00;;;;;;;;5068746;28;10474;-77
2023/10/23 05:41:10;;;;;;;;;2.00;2.00;;;;;;;;5067564;28;10431;-75
2023/10/23 05:43:38;;;;;;;;;3.75;3.75;;;;;;;;5066880;28;10434;-75
2023/10/23 05:46:06;;;;;;;;;1.25;1.25;;;;;;;;5068276;28;10455;-75
2023/10/23 05:48:36;;;;;;;;;2.00;2.00;;;;;;;;5068145;28;10320;-75
2023/10/23 05:51:05;;;;;;;;;1.00;1.00;;;;;;;;5067384;28;10318;-75
2023/10/23 05:53:33;;;;;;;;;4.25;3.00;;;;;;;;5068922;28;10298;-75
2023/10/23 05:56:04;;;;;;;;;2.75;2.75;;;;;;;;5068191;28;10408;-75
2023/10/23 05:58:31;;;;;;;;;3.00;3.00;;;;;;;;5068683;28;10326;-78
2023/10/23 06:01:04;;;;;;;;;8.00;2.25;;;;;;;;5067507;28;11007;-75
2023/10/23 06:03:32;;;;;;;;;6.00;3.00;;;;;;;;5069237;28;10442;-75
2023/10/23 06:05:59;;;;;;;;;1.75;1.75;;;;;;;;5069404;28;10402;-75
2023/10/23 06:08:27;;;;;;;;;2.25;2.00;;;;;;;;5070865;28;11228;-75
2023/10/23 06:10:54;;;;;;;;;3.00;3.00;;;;;;;;5067491;28;10301;-77
2023/10/23 06:13:21;;;;;;;;;4.00;4.00;;;;;;;;5067881;28;10285;-75
2023/10/23 06:15:48;;;;;;;;;3.00;3.00;;;;;;;;5067676;28;10237;-75
2023/10/23 06:18:16;;;;;;;;;2.00;2.00;;;;;;;;5069068;28;10354;-75
2023/10/23 06:20:45;;;;;;;;;1.75;1.75;;;;;;;;5065496;28;10185;-75
2023/10/23 06:23:12;;;;;;;;;1.50;1.50;;;;;;;;5063689;28;10380;-75
2023/10/23 06:25:39;;;;;;;;;3.75;3.50;;;;;;;;5072493;28;10125;-77
2023/10/23 06:28:06;;;;;;;;;3.00;3.00;;;;;;;;5073129;28;10243;-75
2023/10/23 06:30:36;;;;;;;;;5.25;2.25;;;;;;;;5072074;28;10169;-75
2023/10/23 06:33:03;;;;;;;;;1.75;1.75;;;;;;;;5059854;28;10255;-77
2023/10/23 06:35:31;;;;;;;;;2.00;2.00;;;;;;;;5069680;28;10094;-76
2023/10/23 06:37:59;;;;;;;;;2.25;2.25;;;;;;;;5067465;28;10197;-75
2023/10/23 06:40:26;;;;;;;;;1.75;1.50;;;;;;;;5067668;28;10210;-75
2023/10/23 06:42:53;;;;;;;;;2.75;2.75;;;;;;;;5066566;28;10214;-77
2023/10/23 06:45:21;;;;;;;;;3.75;3.75;;;;;;;;5055740;28;10312;-75
2023/10/23 06:47:49;;;;;;;;;1.75;1.75;;;;;;;;5067145;28;10368;-75
2023/10/23 06:50:16;;;;;;;;;3.50;3.50;;;;;;;;5067699;28;10233;-74
2023/10/23 06:52:44;;;;;;;;;4.50;1.75;;;;;;;;5068621;28;10441;-74
2023/10/23 06:55:13;;;;;;;;;3.75;3.00;;;;;;;;5067826;28;10330;-76
2023/10/23 06:57:40;;;;;;;;;5.75;3.25;;;;;;;;5067157;28;10244;-77
2023/10/23 07:00:08;;;;;;;;;3.00;3.00;;;;;;;;5067007;28;10332;-78
2023/10/23 07:02:35;;;;;;;;;4.00;3.00;;;;;;;;5067159;28;10407;-75
2023/10/23 07:05:02;;;;;;;;;3.00;3.00;;;;;;;;5068737;28;10239;-74
2023/10/23 07:07:29;;;;;;;;;4.75;4.00;;;;;;;;5068490;28;10917;-75
2023/10/23 07:09:58;;;;;;;;;6.00;4.75;;;;;;;;5066417;28;11076;-74
2023/10/23 07:12:27;;;;;;;;;3.25;2.50;;;;;;;;5067028;28;10442;-75
2023/10/23 07:14:54;;;;;;;;;9.75;4.25;;;;;;;;5067246;28;10197;-74
2023/10/23 07:17:22;;;;;;;;;4.50;4.50;;;;;;;;5066695;28;10410;-74
2023/10/23 07:19:49;;;;;;;;;6.00;4.50;;;;;;;;5067426;28;10268;-75
2023/10/23 07:22:18;;;;;;;;;4.00;4.00;;;;;;;;5063134;28;10225;-74
2023/10/23 07:24:46;;;;;;;;;2.25;2.25;;;;;;;;5059061;28;11104;-74
2023/10/23 07:27:15;;;;;;;;;5.00;5.00;;;;;;;;5069329;28;10303;-74
2023/10/23 07:29:47;;;;;;;;;4.25;4.25;;;;;;;;5071663;28;10168;-75
2023/10/23 07:32:14;;;;;;;;;8.25;4.50;;;;;;;;5070018;28;10317;-75
2023/10/23 07:34:42;;;;;;;;;4.00;4.00;;;;;;;;5071391;28;10468;-75
2023/10/23 07:37:11;;;;;;;;;6.00;4.00;;;;;;;;5070925;28;10482;-74
2023/10/23 07:39:38;;;;;;;;;5.25;4.00;;;;;;;;5068789;28;10322;-74
2023/10/23 07:42:05;;;;;;;;;5.00;5.00;;;;;;;;5070556;28;10481;-76
2023/10/23 07:44:35;;;;;;;;;3.25;3.25;;;;;;;;5070712;28;10308;-75
2023/10/23 07:47:04;;;;;;;;;3.75;3.75;;;;;;;;5068642;28;10369;-75
2023/10/23 07:49:34;;;;;;;;;4.25;2.75;;;;;;;;5067015;28;10191;-75
2023/10/23 07:52:02;;;;;;;;;4.00;4.00;;;;;;;;5059976;28;10302;-75
2023/10/23 07:54:31;;;;;;;;;5.00;5.00;;;;;;;;5070418;28;11017;-74
2023/10/23 07:56:58;;;;;;;;;3.00;3.00;;;;;;;;5060270;28;10191;-74
2023/10/23 07:59:26;;;;;;;;;4.25;4.25;;;;;;;;5064995;28;10361;-77
2023/10/23 08:01:53;;;;;;;;;5.00;3.75;;;;;;;;5070206;28;10192;-75
2023/10/23 08:04:22;;;;;;;;;3.25;3.25;;;;;;;;5065133;28;10178;-75
2023/10/23 08:06:49;;;;;;;;;5.00;5.00;;;;;;;;5068287;28;10380;-76
2023/10/23 08:09:17;;;;;;;;;4.50;4.50;;;;;;;;5072015;28;10209;-74
2023/10/23 08:11:44;;;;;;;;;4.00;4.00;;;;;;;;5073729;28;10221;-77
2023/10/23 08:14:12;;;;;;;;;5.00;5.00;;;;;;;;5070944;28;10107;-74
2023/10/23 08:16:39;;;;;;;;;3.75;3.75;;;;;;;;5071478;28;10119;-75
2023/10/23 08:19:06;;;;;;;;;2.00;2.00;;;;;;;;5070983;28;10028;-76
2023/10/23 08:21:34;;;;;;;;;4.00;4.00;;;;;;;;5073482;28;10219;-74
2023/10/23 08:24:03;;;;;;;;;4.00;4.00;;;;;;;;5067150;28;10034;-76
2023/10/23 08:26:30;;;;;;;;;6.00;3.00;;;;;;;;5070069;28;10027;-76
2023/10/23 08:28:57;;;;;;;;;4.00;4.00;;;;;;;;5069229;28;10206;-76
2023/10/23 08:31:24;;;;;;;;;4.75;4.75;;;;;;;;5070238;28;10076;-74
2023/10/23 08:33:51;;;;;;;;;3.75;3.00;;;;;;;;5057142;28;9998;-75
2023/10/23 08:36:18;;;;;;;;;5.50;4.00;;;;;;;;5069145;28;9951;-75
2023/10/23 08:38:47;;;;;;;;;5.50;5.00;;;;;;;;5068518;28;10040;-76
2023/10/23 08:41:15;;;;;;;;;3.00;3.00;;;;;;;;5069166;28;9885;-74
2023/10/23 08:43:42;;;;;;;;;6.00;4.00;;;;;;;;5070604;28;9877;-78
2023/10/23 08:46:09;;;;;;;;;5.75;4.25;;;;;;;;5069445;28;9995;-76
2023/10/23 08:48:37;;;;;;;;;4.75;3.75;;;;;;;;5058950;28;9900;-79
2023/10/23 08:51:05;;;;;;;;;3.00;3.00;;;;;;;;5069415;28;9959;-74
2023/10/23 08:53:34;;;;;;;;;4.75;4.25;;;;;;;;5070948;28;9770;-82
2023/10/23 08:56:05;;;;;;;;;4.25;4.00;;;;;;;;5069914;28;9979;-81
2023/10/23 08:58:34;;;;;;;;;7.50;6.00;;;;;;;;5070318;28;9763;-78
2023/10/23 09:01:01;;;;;;;;;1.50;1.50;;;;;;;;5067784;28;9956;-75
2023/10/23 09:03:29;;;;;;;;;7.00;5.00;;;;;;;;5069321;28;9882;-77
2023/10/23 09:05:58;;;;;;;;;6.00;6.00;;;;;;;;5067587;28;10731;-76
2023/10/23 09:08:27;;;;;;;;;6.75;6.75;;;;;;;;5068961;28;9919;-76
2023/10/23 09:11:03;;;;;;;;;11.50;7.25;;;;;;;;5065541;28;9940;-76
2023/10/23 09:13:38;;;;;;;;;8.75;7.25;;;;;;;;5068514;28;10020;-77
2023/10/23 09:16:06;;;;;;;;;8.00;6.00;;;;;;;;5068987;28;9925;-75
2023/10/23 09:18:34;;;;;;;;;5.75;5.75;;;;;;;;5066023;28;9883;-77
2023/10/23 09:21:01;;;;;;;;;5.00;4.50;;;;;;;;5069284;28;10022;-75
2023/10/23 09:23:28;;;;;;;;;9.75;6.75;;;;;;;;5066245;28;9763;-75
2023/10/23 09:26:03;;;;;;;;;5.75;5.75;;;;;;;;5067571;28;9921;-76
2023/10/23 09:28:31;;;;;;;;;8.00;8.00;;;;;;;;5066390;28;9932;-76
2023/10/23 09:30:59;;;;;;;;;9.25;7.00;;;;;;;;5068689;28;9860;-74
2023/10/23 09:33:27;;;;;;;;;9.25;5.00;;;;;;;;5054852;28;9913;-75
2023/10/23 09:35:54;;;;;;;;;8.00;6.00;;;;;;;;5069288;28;9997;-77
2023/10/23 09:38:23;;;;;;;;;2.25;1.75;;;;;;;;5067604;28;9806;-74
2023/10/23 09:40:51;;;;;;;;;8.50;5.25;;;;;;;;5070134;28;9847;-83
2023/10/23 09:43:21;;;;;;;;;7.25;5.75;;;;;;;;5069365;28;10428;-79
2023/10/23 09:45:49;;;;;;;;;7.00;5.25;;;;;;;;5069416;28;10621;-76
2023/10/23 09:48:18;;;;;;;;;5.50;5.50;;;;;;;;5068101;28;9605;-79
2023/10/23 09:50:49;;;;;;;;;7.00;7.00;;;;;;;;5069522;28;9738;-76
2023/10/23 09:53:17;;;;;;;;;6.25;5.00;;;;;;;;5069052;28;9536;-73
2023/10/23 09:55:45;;;;;;;;;6.00;6.00;;;;;;;;5068830;28;9496;-77
2023/10/23 09:58:15;;;;;;;;;3.00;3.00;;;;;;;;5069348;28;9416;-79
2023/10/23 10:00:47;;;;;;;;;5.00;5.00;;;;;;;;5071955;28;9263;-75
2023/10/23 10:03:16;;;;;;;;;6.50;6.00;;;;;;;;5072757;28;9323;-74
2023/10/23 10:05:47;;;;;;;;;6.00;6.00;;;;;;;;5063600;28;9501;-74
2023/10/23 10:08:17;;;;;;;;;6.33;5.00;;;;;;;;5053235;28;9525;-75
2023/10/23 10:10:45;;;;;;;;;4.33;4.00;;;;;;;;5054295;28;9519;-75
2023/10/23 10:13:12;;;;;;;;;4.00;4.00;;;;;;;;5052556;28;9276;-74
2023/10/23 10:15:40;;;;;;;;;5.00;5.00;;;;;;;;5055250;28;9172;-77
2023/10/23 10:18:07;;;;;;;;;5.33;4.00;;;;;;;;5061795;28;9339;-74
2023/10/23 10:20:35;;;;;;;;;6.33;4.67;;;;;;;;5052988;28;9211;-76
2023/10/23 10:23:08;;;;;;;;;7.00;5.33;;;;;;;;5057787;28;9254;-76
2023/10/23 10:25:37;;;;;;;;;4.00;4.00;;;;;;;;5066124;28;9317;-78
2023/10/23 10:28:06;;;;;;;;;6.00;6.00;;;;;;;;5050708;28;9166;-78
2023/10/23 10:30:41;;;;;;;;;6.00;5.00;;;;;;;;5064430;28;9258;-75
2023/10/23 10:33:10;;;;;;;;;6.67;6.00;;;;;;;;5048707;28;9245;-75
2023/10/23 10:35:37;;;;;;;;;4.00;4.00;;;;;;;;5067803;28;9190;-77
2023/10/23 10:38:12;;;;;;;;;2.00;2.00;;;;;;;;5065318;28;9137;-76
2023/10/23 10:40:55;;;;;;;;;5.00;3.00;;;;;;;;5066676;28;9011;-74
2023/10/23 10:43:25;;;;;;;;;4.00;4.00;;;;;;;;5066115;28;9232;-76
2023/10/23 10:45:56;;;;;;;;;4.75;3.00;;;;;;;;5067372;28;9042;-73
2023/10/23 10:48:24;;;;;;;;;6.33;5.00;;;;;;;;5067502;28;8838;-76
2023/10/23 10:50:53;;;;;;;;;5.00;3.00;;;;;;;;5066971;28;9203;-75
2023/10/23 10:53:25;;;;;;;;;6.00;4.00;;;;;;;;5067219;28;8940;-83
2023/10/23 10:55:53;;;;;;;;;4.00;4.00;;;;;;;;5064410;28;9026;-75
2023/10/23 10:58:20;;;;;;;;;4.00;3.00;;;;;;;;5054590;28;9884;-74
2023/10/23 11:00:47;;;;;;;;;4.00;4.00;;;;;;;;5065535;28;8864;-77
2023/10/23 11:03:14;;;;;;;;;4.33;4.33;;;;;;;;5066965;28;8869;-74
2023/10/23 11:05:46;;;;;;;;;4.00;4.00;;;;;;;;5065480;28;9065;-76
2023/10/23 11:08:13;;;;;;;;;3.50;3.50;;;;;;;;5065631;28;8982;-74
2023/10/23 11:10:43;;;;;;;;;6.00;3.00;;;;;;;;5063908;28;8849;-75
2023/10/23 11:13:15;;;;;;;;;3.25;3.00;;;;;;;;5067321;28;8866;-74
2023/10/23 11:15:42;;;;;;;;;4.00;3.00;;;;;;;;5063441;28;8874;-74
2023/10/23 11:18:09;;;;;;;;;6.00;4.25;;;;;;;;5067371;28;8862;-75
2023/10/23 11:20:37;;;;;;;;;6.00;5.00;;;;;;;;5064864;28;8851;-77
2023/10/23 11:23:05;;;;;;;;;2.75;2.75;;;;;;;;5066431;28;8866;-75
2023/10/23 11:25:36;;;;;;;;;4.00;4.00;;;;;;;;5064230;28;8862;-77
2023/10/23 11:28:09;;;;;;;;;3.00;3.00;;;;;;;;5066864;28;8842;-78
2023/10/23 11:30:45;;;;;;;;;4.75;3.50;;;;;;;;5065646;28;8802;-76
2023/10/23 11:33:13;;;;;;;;;4.00;3.75;;;;;;;;5053862;28;8912;-80
2023/10/23 11:35:42;;;;;;;;;3.00;3.00;;;;;;;;5066892;28;9619;-75
2023/10/23 11:38:13;;;;;;;;;3.75;2.50;;;;;;;;5067046;28;8858;-74
2023/10/23 11:40:43;;;;;;;;;2.75;2.75;;;;;;;;5071179;28;8861;-74
2023/10/23 11:43:13;;;;;;;;;2.00;2.00;;;;;;;;5070293;28;9637;-74
2023/10/23 11:45:41;;;;;;;;;4.00;2.50;;;;;;;;5070984;28;9213;-74
2023/10/23 11:48:08;;;;;;;;;3.00;3.00;;;;;;;;5071086;28;8866;-79
2023/10/23 11:50:36;;;;;;;;;3.00;3.00;;;;;;;;5069967;28;8977;-75
2023/10/23 11:53:04;;;;;;;;;5.75;4.00;;;;;;;;5070099;28;8912;-75
2023/10/23 11:55:32;;;;;;;;;2.00;2.00;;;;;;;;5065614;28;8861;-74
2023/10/23 11:57:59;;;;;;;;;4.75;2.00;;;;;;;;5064471;28;8862;-75
2023/10/23 12:00:28;;;;;;;;;2.00;2.00;;;;;;;;5067019;28;8747;-76
2023/10/23 12:02:55;;;;;;;;;2.75;2.75;;;;;;;;5066793;28;8966;-78
2023/10/23 12:05:24;;;;;;;;;2.25;2.25;;;;;;;;5067229;28;8943;-75
2023/10/23 12:07:53;;;;;;;;;2.25;2.25;;;;;;;;5065375;28;8846;-77
2023/10/23 12:10:21;;;;;;;;;2.00;2.00;;;;;;;;5067638;28;8869;-75
2023/10/23 12:12:52;;;;;;;;;3.00;3.00;;;;;;;;5069890;28;9030;-74
2023/10/23 12:15:19;;;;;;;;;4.50;3.00;;;;;;;;5070765;28;8858;-76
2023/10/23 12:17:48;;;;;;;;;4.50;4.00;;;;;;;;5070528;28;8854;-75
2023/10/23 12:20:16;;;;;;;;;2.00;2.00;;;;;;;;5070610;28;8873;-76
2023/10/23 12:22:45;;;;;;;;;3.00;3.00;;;;;;;;5068459;28;8882;-77
2023/10/23 12:25:13;;;;;;;;;2.75;2.75;;;;;;;;5068870;28;9027;-76
2023/10/23 12:27:41;;;;;;;;;4.50;4.00;;;;;;;;5060512;28;8869;-75
2023/10/23 12:30:10;;;;;;;;;5.50;4.25;;;;;;;;5069497;28;8977;-75
2023/10/23 12:32:39;;;;;;;;;3.25;3.25;;;;;;;;5061841;28;8830;-75
2023/10/23 12:35:09;;;;;;;;;5.00;5.00;;;;;;;;5066527;28;8859;-75
2023/10/23 12:37:37;;;;;;;;;4.50;4.50;;;;;;;;5070046;28;8928;-76
2023/10/23 12:40:08;;;;;;;;;13.33;13.33;;;;;;;;5069408;28;8875;-75
2023/10/23 12:42:37;;;;;;;;;7.33;6.33;;;;;;;;5070185;28;9177;-76
2023/10/23 12:45:05;;;;;;;;;7.00;7.00;;;;;;;;5068022;28;9062;-75
2023/10/23 12:47:34;;;;;;;;;5.50;5.50;;;;;;;;5070238;28;8939;-75
2023/10/23 12:50:03;;;;;;;;;7.00;7.00;;;;;;;;5067213;28;9002;-74
2023/10/23 12:52:33;;;;;;;;;7.67;5.67;;;;;;;;5068740;28;8984;-76
2023/10/23 12:55:01;;;;;;;;;11.00;5.67;;;;;;;;5069060;28;9023;-75
2023/10/23 12:57:28;;;;;;;;;7.67;6.00;;;;;;;;5069043;28;9016;-74
2023/10/23 12:59:55;;;;;;;;;13.00;8.67;;;;;;;;5068936;28;9031;-74
2023/10/23 13:02:22;;;;;;;;;9.00;4.33;;;;;;;;5068250;28;8977;-74
2023/10/23 13:04:50;;;;;;;;;6.67;6.67;;;;;;;;5068783;28;9027;-75
2023/10/23 13:07:18;;;;;;;;;8.00;6.00;;;;;;;;5069840;28;9096;-73
2023/10/23 13:09:46;;;;;;;;;25.25;24.75;;;;;;;;5057905;28;9044;-76
2023/10/23 13:12:13;;;;;;;;;6.33;6.33;;;;;;;;5069243;28;9736;-76
2023/10/23 13:14:41;;;;;;;;;11.33;10.00;;;;;;;;5069747;28;9184;-78
2023/10/23 13:17:08;;;;;;;;;12.33;9.33;;;;;;;;5069529;28;9328;-78
2023/10/23 13:19:36;;;;;;;;;8.33;7.00;;;;;;;;5068950;28;9248;-74
2023/10/23 13:22:04;;;;;;;;;5.67;5.33;;;;;;;;5069193;28;9271;-76
2023/10/23 13:24:31;;;;;;;;;8.67;7.00;;;;;;;;5069580;28;9185;-75
2023/10/23 13:27:00;;;;;;;;;7.00;5.67;;;;;;;;5070346;28;9272;-74
2023/10/23 13:29:31;;;;;;;;;9.33;6.33;;;;;;;;5071550;28;9378;-74
2023/10/23 13:31:59;;;;;;;;;7.67;7.00;;;;;;;;5067745;28;9280;-74
2023/10/23 13:34:26;;;;;;;;;5.33;5.33;;;;;;;;5063740;28;9358;-73
2023/10/23 13:36:53;;;;;;;;;6.00;6.00;;;;;;;;5072484;28;9156;-78
2023/10/23 13:39:20;;;;;;;;;7.00;7.00;;;;;;;;5070206;28;9404;-78
2023/10/23 13:41:47;;;;;;;;;8.00;8.00;;;;;;;;5068925;28;9215;-74
2023/10/23 13:44:16;;;;;;;;;11.00;8.00;;;;;;;;5068935;28;9289;-76
2023/10/23 13:46:43;;;;;;;;;9.00;8.00;;;;;;;;5067927;28;9234;-75
2023/10/23 13:49:10;;;;;;;;;12.67;9.67;;;;;;;;5067889;28;9246;-78
2023/10/23 13:51:38;;;;;;;;;6.33;6.33;;;;;;;;5067374;28;9335;-76
2023/10/23 13:54:06;;;;;;;;;6.67;6.67;;;;;;;;5068235;28;9113;-76
2023/10/23 13:56:33;;;;;;;;;9.67;8.33;;;;;;;;5067818;28;9251;-75
2023/10/23 13:59:00;;;;;;;;;12.00;7.67;;;;;;;;5067392;28;9266;-75
2023/10/23 14:01:28;;;;;;;;;6.67;6.67;;;;;;;;5067098;28;9141;-78
2023/10/23 14:03:56;;;;;;;;;8.67;7.00;;;;;;;;5067872;28;9193;-74
2023/10/23 14:06:24;;;;;;;;;8.33;8.33;;;;;;;;5067962;28;9439;-79
2023/10/23 14:08:53;;;;;;;;;7.33;7.33;;;;;;;;5068548;28;9095;-78
2023/10/23 14:11:21;;;;;;;;;10.67;9.00;;;;;;;;5068888;28;9516;-76
2023/10/23 14:13:48;;;;;;;;;9.33;8.00;;;;;;;;5067608;28;9259;-76
2023/10/23 14:16:15;;;;;;;;;8.33;6.67;;;;;;;;5067989;28;9157;-79
2023/10/23 14:18:44;;;;;;;;;9.67;6.00;;;;;;;;5067534;28;9086;-76
2023/10/23 14:21:12;;;;;;;;;5.33;5.33;;;;;;;;5066707;28;9114;-77
2023/10/23 14:23:39;;;;;;;;;7.67;7.67;;;;;;;;5065551;28;9186;-77
2023/10/23 14:26:08;;;;;;;;;9.67;6.33;;;;;;;;5068074;28;9122;-77
2023/10/23 14:28:35;;;;;;;;;7.00;5.67;;;;;;;;5066581;28;9842;-76
2023/10/23 14:31:02;;;;;;;;;6.00;6.00;;;;;;;;5067332;28;8943;-76
2023/10/23 14:33:29;;;;;;;;;8.00;6.00;;;;;;;;5054955;28;9166;-76
2023/10/23 14:35:58;;;;;;;;;7.67;6.00;;;;;;;;5067374;28;9178;-74
2023/10/23 14:38:25;;;;;;;;;8.00;7.00;;;;;;;;5067377;28;9089;-75
2023/10/23 14:40:57;;;;;;;;;6.00;6.00;;;;;;;;5066575;28;8946;-78
2023/10/23 14:43:27;;;;;;;;;5.33;5.33;;;;;;;;5066018;28;8966;-75
2023/10/23 14:45:54;;;;;;;;;7.25;7.25;;;;;;;;5066024;28;8950;-74
2023/10/23 14:48:23;;;;;;;;;7.00;5.67;;;;;;;;5066417;28;8843;-75
2023/10/23 14:50:54;;;;;;;;;6.67;6.67;;;;;;;;5068060;28;9167;-75
2023/10/23 14:53:26;;;;;;;;;8.33;8.33;;;;;;;;5067271;28;8967;-74